Clay, New York
Current Conditions -  °F | °C
As of 9:23 PM on Friday 19 Dec 2014 (Local Time) from KSYR Reporting Station
Light Snow Light Snow  
Wind Chill: 26°   Ceiling: 2100
Heat Index: 26°   Visibility: 9mi
Dew Point: 21°   Wind: 3mph
Humidity: 81%   Direction: 330°NNW
Pressure: 30.23"   Gusts: NA
Location:  43.19°N, 76.17°W
Report Text: KSYR 200223Z 33003KT 9SM -SN OVC021 M03/M06 A3023 RMK AO2 P0000 T10331061
Loading
Personal Weather Stations






























Interactive Weather Map New forecast layout! Learn more

10-Day Weather Forecast

Advertisements
Track Severe Weather on mobile